createdAt,value
2022-07-31T00:02:08.975Z,15.14
2022-07-31T00:04:35.575Z,15.06
2022-07-31T00:07:02.696Z,15.06
2022-07-31T00:09:53.052Z,15.07
2022-07-31T00:12:17.519Z,15.16
2022-07-31T00:14:45.026Z,15.18
2022-07-31T00:17:11.549Z,15.09
2022-07-31T00:19:38.104Z,15.30
2022-07-31T00:22:05.037Z,15.33
2022-07-31T00:24:31.608Z,15.18
2022-07-31T00:26:59.951Z,15.21
2022-07-31T00:29:27.061Z,15.30
2022-07-31T00:31:54.797Z,15.31
2022-07-31T00:34:21.309Z,15.31
2022-07-31T00:36:47.708Z,15.29
2022-07-31T00:39:17.595Z,15.33
2022-07-31T00:41:47.776Z,15.27
2022-07-31T00:44:14.758Z,15.21
2022-07-31T00:46:42.010Z,15.25
2022-07-31T00:49:10.760Z,15.19
2022-07-31T00:51:40.582Z,15.04
2022-07-31T00:54:08.896Z,15.02
2022-07-31T00:56:36.157Z,14.92
2022-07-31T00:59:05.732Z,14.91
2022-07-31T01:01:32.546Z,15.01
2022-07-31T01:03:59.687Z,15.07
2022-07-31T01:06:26.097Z,15.03
2022-07-31T01:08:52.564Z,15.18
2022-07-31T01:11:41.781Z,15.35
2022-07-31T01:14:09.927Z,15.36
2022-07-31T01:16:44.709Z,15.40
2022-07-31T01:19:21.968Z,15.34
2022-07-31T01:22:33.183Z,15.31
2022-07-31T01:25:07.143Z,15.31
2022-07-31T01:27:49.542Z,15.25
2022-07-31T01:30:17.593Z,15.27
2022-07-31T01:32:49.154Z,15.34
2022-07-31T01:35:21.143Z,15.29
2022-07-31T01:37:52.428Z,15.30
2022-07-31T01:40:27.868Z,15.39
2022-07-31T01:43:01.958Z,15.25
2022-07-31T01:45:30.702Z,15.27
2022-07-31T01:47:57.722Z,15.09
2022-07-31T01:50:43.931Z,15.10
2022-07-31T01:53:14.409Z,14.92
2022-07-31T01:56:03.746Z,14.89
2022-07-31T01:58:36.310Z,14.82
2022-07-31T02:01:04.973Z,14.85
2022-07-31T02:03:44.491Z,14.99
2022-07-31T02:06:17.151Z,14.99
2022-07-31T02:08:48.932Z,15.10
2022-07-31T02:11:18.432Z,14.93
2022-07-31T02:13:46.718Z,14.99
2022-07-31T02:16:14.480Z,15.09
2022-07-31T02:18:42.008Z,15.11
2022-07-31T02:21:09.856Z,14.88
2022-07-31T02:23:37.062Z,15.24
2022-07-31T02:26:07.113Z,15.24
2022-07-31T02:28:38.070Z,15.23
2022-07-31T02:31:06.952Z,15.39
2022-07-31T02:33:35.577Z,15.31
2022-07-31T02:36:03.045Z,15.32
2022-07-31T02:38:33.501Z,15.44
2022-07-31T02:41:04.578Z,15.39
2022-07-31T02:43:33.133Z,15.39
2022-07-31T02:46:00.670Z,15.31
2022-07-31T02:48:27.833Z,15.35
2022-07-31T02:50:55.008Z,15.47
2022-07-31T02:53:22.079Z,15.40
2022-07-31T02:55:52.450Z,15.39
2022-07-31T02:58:19.064Z,15.46
2022-07-31T03:00:46.018Z,15.43
2022-07-31T03:03:12.653Z,15.39
2022-07-31T03:05:39.569Z,15.08
2022-07-31T03:08:06.032Z,15.15
2022-07-31T03:10:34.005Z,14.97
2022-07-31T03:13:01.593Z,15.04
2022-07-31T03:15:30.586Z,14.91
2022-07-31T03:17:58.411Z,15.00
2022-07-31T03:20:26.634Z,15.06
2022-07-31T03:22:53.189Z,15.05
2022-07-31T03:25:21.511Z,15.08
2022-07-31T03:27:55.532Z,15.15
2022-07-31T03:30:27.282Z,15.25
2022-07-31T03:32:55.478Z,15.28
2022-07-31T03:35:25.483Z,15.13
2022-07-31T03:37:52.035Z,15.23
2022-07-31T03:40:18.449Z,15.30
2022-07-31T03:42:46.307Z,15.39
2022-07-31T03:45:13.524Z,15.38
2022-07-31T03:47:40.119Z,15.27
2022-07-31T03:50:08.030Z,15.29
2022-07-31T03:52:35.907Z,15.41
2022-07-31T03:55:02.686Z,15.37
2022-07-31T03:57:34.300Z,15.48
2022-07-31T04:00:03.218Z,15.41
2022-07-31T04:02:31.818Z,15.50
2022-07-31T04:04:58.804Z,15.50
2022-07-31T04:07:25.613Z,15.54
2022-07-31T04:09:52.000Z,15.56
2022-07-31T04:12:18.514Z,15.55
2022-07-31T04:14:45.705Z,15.65
2022-07-31T04:17:12.534Z,15.64
2022-07-31T04:19:40.034Z,15.69
2022-07-31T04:22:07.315Z,15.62
2022-07-31T04:24:34.619Z,15.56
2022-07-31T04:27:01.146Z,15.74
2022-07-31T04:29:28.774Z,15.77
2022-07-31T04:31:55.810Z,15.86
2022-07-31T04:34:22.447Z,15.84
2022-07-31T04:36:48.868Z,15.95
2022-07-31T04:39:15.298Z,16.05
2022-07-31T04:41:43.025Z,15.73
2022-07-31T04:44:12.975Z,15.96
2022-07-31T04:46:44.821Z,16.12
2022-07-31T04:49:15.328Z,16.20
2022-07-31T04:51:42.847Z,16.16
2022-07-31T04:54:12.344Z,16.23
2022-07-31T04:56:42.880Z,16.29
2022-07-31T04:59:12.524Z,16.39
2022-07-31T05:01:40.622Z,16.52
2022-07-31T05:04:09.078Z,16.59
2022-07-31T05:06:36.923Z,16.52
2022-07-31T05:09:10.720Z,16.56
2022-07-31T05:11:40.862Z,16.52
2022-07-31T05:14:09.418Z,16.53
2022-07-31T05:16:36.622Z,16.75
2022-07-31T05:19:04.226Z,16.77
2022-07-31T05:21:30.781Z,16.80
2022-07-31T05:23:58.378Z,16.86
2022-07-31T05:26:26.234Z,16.82
2022-07-31T05:28:57.961Z,16.95
2022-07-31T05:31:28.644Z,17.03
2022-07-31T05:33:55.289Z,17.11
2022-07-31T05:36:22.792Z,17.27
2022-07-31T05:38:50.022Z,17.32
2022-07-31T05:41:16.599Z,17.21
2022-07-31T05:43:47.223Z,17.18
2022-07-31T05:46:17.262Z,17.38
2022-07-31T05:48:45.083Z,17.74
2022-07-31T05:51:13.177Z,17.85
2022-07-31T05:53:41.404Z,17.61
2022-07-31T05:56:12.480Z,17.75
2022-07-31T05:58:41.242Z,17.95
2022-07-31T06:01:09.689Z,17.95
2022-07-31T06:03:51.481Z,18.13
2022-07-31T06:06:20.105Z,18.05
2022-07-31T06:08:46.813Z,18.41
2022-07-31T06:11:13.332Z,18.38
2022-07-31T06:13:42.607Z,18.52
2022-07-31T06:16:14.476Z,18.34
2022-07-31T06:18:41.573Z,18.71
2022-07-31T06:23:37.119Z,19.50
2022-07-31T06:26:03.963Z,19.40
2022-07-31T06:28:47.403Z,19.77
2022-07-31T06:31:19.954Z,19.32
2022-07-31T06:33:48.218Z,19.52
2022-07-31T06:36:16.355Z,19.87
2022-07-31T06:38:42.921Z,19.81
2022-07-31T06:41:09.389Z,19.60
2022-07-31T06:43:37.973Z,19.85
2022-07-31T06:46:06.168Z,19.69
2022-07-31T06:48:33.170Z,20.57
2022-07-31T06:51:27.893Z,21.52
2022-07-31T06:53:46.981Z,21.38
2022-07-31T06:56:13.372Z,22.95
2022-07-31T06:58:40.186Z,22.57
2022-07-31T07:01:07.072Z,22.50
2022-07-31T07:03:33.766Z,22.76
2022-07-31T07:06:00.495Z,24.40
2022-07-31T07:08:29.719Z,23.57
2022-07-31T07:10:56.402Z,24.59
2022-07-31T07:13:23.547Z,25.02
2022-07-31T07:15:50.228Z,25.28
2022-07-31T07:18:16.646Z,25.63
2022-07-31T07:20:43.038Z,25.44
2022-07-31T07:23:09.636Z,26.09
2022-07-31T07:25:36.103Z,26.48
2022-07-31T07:28:02.489Z,26.87
2022-07-31T07:30:29.253Z,27.65
2022-07-31T07:32:55.959Z,27.30
2022-07-31T07:35:22.418Z,27.67
2022-07-31T07:37:49.053Z,28.05
2022-07-31T07:40:16.920Z,28.53
2022-07-31T07:42:43.488Z,29.24
2022-07-31T07:45:10.584Z,28.91
2022-07-31T07:48:04.937Z,29.61
2022-07-31T07:50:26.893Z,28.49
2022-07-31T07:52:55.820Z,27.83
2022-07-31T07:55:22.288Z,28.91
2022-07-31T07:57:48.773Z,29.36
2022-07-31T08:00:16.366Z,27.88
2022-07-31T08:02:45.007Z,29.77
2022-07-31T08:05:31.297Z,28.78
2022-07-31T08:07:57.875Z,29.00
2022-07-31T08:10:24.299Z,28.93
2022-07-31T08:12:50.835Z,28.83
2022-07-31T08:15:17.675Z,28.96
2022-07-31T08:17:44.637Z,29.02
2022-07-31T08:20:11.789Z,28.23
2022-07-31T08:22:38.432Z,28.10
2022-07-31T08:25:05.957Z,29.57
2022-07-31T08:27:39.614Z,29.14
2022-07-31T08:30:07.558Z,28.73
2022-07-31T08:32:34.831Z,30.61
2022-07-31T08:35:01.344Z,29.55
2022-07-31T08:38:01.210Z,30.21
2022-07-31T08:40:14.322Z,29.58
2022-07-31T08:42:40.703Z,29.42
2022-07-31T08:45:08.341Z,31.21
2022-07-31T08:47:37.087Z,30.04
2022-07-31T08:50:06.310Z,28.59
2022-07-31T08:52:36.290Z,28.93
2022-07-31T08:55:07.790Z,27.83
2022-07-31T08:57:35.877Z,28.12
2022-07-31T09:00:05.201Z,28.45
2022-07-31T09:02:33.200Z,28.38
2022-07-31T09:05:00.797Z,28.07
2022-07-31T09:07:28.152Z,27.12
2022-07-31T09:09:54.877Z,28.43
2022-07-31T09:12:33.416Z,28.76
2022-07-31T09:15:00.920Z,27.67
2022-07-31T09:17:32.726Z,28.59
2022-07-31T09:20:00.390Z,28.18
2022-07-31T09:22:30.183Z,27.91
2022-07-31T09:25:08.788Z,27.66
2022-07-31T09:27:35.213Z,28.14
2022-07-31T09:30:02.235Z,29.25
2022-07-31T09:32:29.366Z,30.91
2022-07-31T09:35:10.342Z,31.49
2022-07-31T09:37:37.857Z,31.88
2022-07-31T09:40:05.547Z,31.72
2022-07-31T09:42:46.090Z,32.11
2022-07-31T09:45:24.101Z,31.74
2022-07-31T09:48:15.222Z,31.69
2022-07-31T09:51:04.285Z,32.06
2022-07-31T09:53:56.442Z,30.38
2022-07-31T09:56:34.603Z,30.95
2022-07-31T09:59:01.824Z,31.75
2022-07-31T10:01:28.554Z,29.97
2022-07-31T10:03:59.744Z,30.61
2022-07-31T10:06:27.731Z,31.38
2022-07-31T10:08:55.725Z,30.99
2022-07-31T10:11:24.720Z,29.91
2022-07-31T10:13:54.840Z,30.23
2022-07-31T10:16:26.256Z,30.71
2022-07-31T10:18:59.545Z,29.92
2022-07-31T10:21:37.802Z,28.96
2022-07-31T10:24:05.514Z,27.94
2022-07-31T10:26:58.653Z,29.50
2022-07-31T10:29:19.733Z,30.24
2022-07-31T10:31:46.824Z,30.60
2022-07-31T10:34:16.764Z,30.61
2022-07-31T10:36:46.584Z,30.49
2022-07-31T10:39:24.978Z,31.12
2022-07-31T10:42:10.582Z,31.55
2022-07-31T10:44:44.080Z,32.54
2022-07-31T10:47:14.867Z,31.49
2022-07-31T10:49:43.577Z,32.10
2022-07-31T10:52:11.318Z,33.02
2022-07-31T10:54:46.371Z,32.66
2022-07-31T10:57:34.487Z,31.28
2022-07-31T11:00:12.085Z,30.46
2022-07-31T11:02:38.859Z,30.32
2022-07-31T11:05:13.267Z,30.43
2022-07-31T11:07:42.020Z,30.32
2022-07-31T11:10:16.667Z,29.66
2022-07-31T11:12:44.219Z,29.34
2022-07-31T11:15:25.159Z,30.09
2022-07-31T11:18:21.889Z,29.11
2022-07-31T11:20:38.869Z,28.98
2022-07-31T11:23:11.063Z,30.57
2022-07-31T11:25:38.100Z,31.58
2022-07-31T11:28:19.064Z,30.51
2022-07-31T11:30:50.337Z,30.42
2022-07-31T11:33:41.536Z,30.08
2022-07-31T11:36:12.844Z,29.48
2022-07-31T11:38:42.332Z,28.52
2022-07-31T11:41:11.368Z,28.57
2022-07-31T11:43:50.048Z,28.13
2022-07-31T11:46:29.906Z,28.53
2022-07-31T11:48:57.106Z,27.77
2022-07-31T11:51:25.458Z,28.38
2022-07-31T11:53:56.639Z,28.41
2022-07-31T11:56:24.295Z,28.60
2022-07-31T11:58:56.425Z,28.48
2022-07-31T12:01:27.751Z,28.32
2022-07-31T12:03:55.903Z,28.33
2022-07-31T12:06:22.417Z,28.85
2022-07-31T12:08:50.780Z,30.91
2022-07-31T12:11:19.189Z,32.12
2022-07-31T12:13:49.105Z,31.64
2022-07-31T12:16:18.525Z,30.48
2022-07-31T12:18:59.634Z,30.48
2022-07-31T12:21:40.486Z,31.04
2022-07-31T12:24:13.392Z,30.28
2022-07-31T12:26:44.139Z,30.56
2022-07-31T12:29:12.517Z,29.41
2022-07-31T12:31:53.185Z,29.01
2022-07-31T12:34:30.138Z,28.93
2022-07-31T12:37:19.179Z,29.48
2022-07-31T12:40:00.579Z,30.88
2022-07-31T12:42:32.378Z,30.43
2022-07-31T12:45:19.265Z,30.23
2022-07-31T12:47:51.611Z,30.64
2022-07-31T12:50:20.045Z,29.27
2022-07-31T12:52:46.441Z,28.61
2022-07-31T12:55:13.350Z,29.34
2022-07-31T12:57:50.473Z,28.96
2022-07-31T13:00:20.194Z,27.19
2022-07-31T13:02:47.072Z,27.52
2022-07-31T13:05:13.787Z,28.11
2022-07-31T13:07:41.555Z,27.63
2022-07-31T13:10:20.053Z,27.22
2022-07-31T13:12:50.481Z,27.86
2022-07-31T13:15:18.254Z,29.26
2022-07-31T13:17:48.199Z,30.46
2022-07-31T13:20:18.140Z,30.02
2022-07-31T13:22:44.648Z,28.93
2022-07-31T13:25:11.754Z,29.69
2022-07-31T13:27:38.248Z,29.29
2022-07-31T13:30:05.451Z,29.39
2022-07-31T13:32:32.520Z,28.79
2022-07-31T13:35:26.510Z,28.58
2022-07-31T13:37:48.349Z,28.92
2022-07-31T13:40:15.498Z,29.05
2022-07-31T13:42:42.352Z,28.50
2022-07-31T13:45:09.870Z,28.55
2022-07-31T13:47:50.934Z,28.26
2022-07-31T13:50:18.592Z,28.07
2022-07-31T13:52:45.032Z,28.09
2022-07-31T13:55:12.669Z,28.24
2022-07-31T13:57:44.048Z,27.59
2022-07-31T14:00:11.372Z,27.67
2022-07-31T14:02:38.142Z,28.60
2022-07-31T14:05:04.933Z,27.36
2022-07-31T14:07:47.888Z,27.57
2022-07-31T14:10:19.918Z,27.99
2022-07-31T14:12:46.932Z,28.24
2022-07-31T14:15:13.369Z,28.57
2022-07-31T14:17:39.794Z,28.95
2022-07-31T14:20:06.695Z,28.87
2022-07-31T14:22:33.949Z,28.95
2022-07-31T14:25:00.776Z,28.76
2022-07-31T14:27:30.391Z,27.93
2022-07-31T14:29:57.373Z,28.78
2022-07-31T14:32:25.296Z,28.58
2022-07-31T14:34:52.366Z,28.46
2022-07-31T14:37:20.071Z,28.25
2022-07-31T14:39:46.568Z,28.77
2022-07-31T14:42:12.990Z,28.76
2022-07-31T14:44:42.259Z,28.48
2022-07-31T14:47:12.172Z,28.55
2022-07-31T14:50:09.871Z,28.33
2022-07-31T14:52:27.388Z,28.58
2022-07-31T14:54:55.133Z,28.68
2022-07-31T14:57:22.296Z,28.70
2022-07-31T14:59:50.206Z,28.35
2022-07-31T15:02:21.936Z,28.64
2022-07-31T15:04:49.223Z,28.79
2022-07-31T15:10:04.450Z,28.53
2022-07-31T15:12:30.963Z,28.70
2022-07-31T15:14:59.347Z,28.12
2022-07-31T15:17:26.000Z,28.15
2022-07-31T15:19:52.739Z,28.11
2022-07-31T15:22:19.387Z,27.91
2022-07-31T15:24:49.543Z,28.34
2022-07-31T15:27:18.392Z,28.52
2022-07-31T15:30:04.048Z,28.54
2022-07-31T15:32:31.872Z,28.69
2022-07-31T15:34:58.248Z,28.62
2022-07-31T15:37:25.073Z,28.52
2022-07-31T15:40:01.375Z,28.43
2022-07-31T15:42:31.072Z,28.17
2022-07-31T15:44:57.444Z,28.14
2022-07-31T15:47:23.831Z,28.13
2022-07-31T15:49:50.535Z,28.24
2022-07-31T15:52:18.894Z,28.41
2022-07-31T15:54:45.904Z,28.13
2022-07-31T15:57:12.377Z,28.26
2022-07-31T15:59:39.088Z,28.29
2022-07-31T16:02:06.543Z,28.25
2022-07-31T16:04:32.993Z,28.23
2022-07-31T16:07:00.487Z,28.40
2022-07-31T16:10:03.706Z,28.01
2022-07-31T16:12:33.881Z,28.18
2022-07-31T16:15:00.395Z,27.97
2022-07-31T16:17:37.997Z,27.56
2022-07-31T16:20:12.965Z,27.61
2022-07-31T16:22:51.237Z,27.37
2022-07-31T16:25:20.908Z,27.37
2022-07-31T16:27:48.082Z,27.38
2022-07-31T16:30:15.211Z,27.24
2022-07-31T16:32:42.896Z,27.05
2022-07-31T16:35:10.775Z,27.30
2022-07-31T16:37:50.991Z,27.50
2022-07-31T16:40:29.441Z,27.37
2022-07-31T16:43:00.952Z,27.11
2022-07-31T16:45:28.019Z,26.93
2022-07-31T16:47:54.412Z,27.13
2022-07-31T16:50:21.021Z,27.39
2022-07-31T16:52:52.647Z,27.35
2022-07-31T16:55:20.855Z,27.25
2022-07-31T16:58:13.906Z,27.35
2022-07-31T17:00:41.430Z,27.52
2022-07-31T17:03:59.110Z,27.36
2022-07-31T17:05:55.017Z,27.46
2022-07-31T17:08:21.608Z,27.17
2022-07-31T17:10:52.482Z,27.31
2022-07-31T17:13:20.542Z,27.34
2022-07-31T17:15:47.083Z,27.25
2022-07-31T17:18:13.467Z,27.05
2022-07-31T17:20:48.632Z,27.04
2022-07-31T17:23:15.728Z,26.82
2022-07-31T17:25:42.335Z,27.10
2022-07-31T17:28:13.333Z,27.10
2022-07-31T17:30:41.814Z,27.06
2022-07-31T17:33:08.242Z,27.06
2022-07-31T17:35:35.129Z,27.17
2022-07-31T17:38:01.587Z,27.06
2022-07-31T17:40:43.010Z,27.09
2022-07-31T17:43:11.505Z,26.97
2022-07-31T17:45:59.346Z,27.13
2022-07-31T17:48:31.545Z,27.10
2022-07-31T17:50:57.971Z,26.97
2022-07-31T17:53:24.584Z,26.86
2022-07-31T17:56:13.023Z,26.80
2022-07-31T17:58:39.709Z,26.60
2022-07-31T18:01:07.413Z,26.55
2022-07-31T18:03:33.779Z,26.68
2022-07-31T18:06:00.458Z,26.68
2022-07-31T18:08:29.165Z,26.57
2022-07-31T18:10:55.829Z,26.57
2022-07-31T18:13:22.918Z,26.52
2022-07-31T18:15:49.451Z,26.25
2022-07-31T18:18:16.469Z,26.30
2022-07-31T18:20:46.310Z,26.26
2022-07-31T18:23:14.391Z,26.16
2022-07-31T18:25:41.604Z,26.13
2022-07-31T18:28:10.428Z,26.10
2022-07-31T18:30:41.047Z,25.94
2022-07-31T18:33:07.551Z,25.87
2022-07-31T18:35:33.980Z,25.82
2022-07-31T18:38:00.436Z,25.95
2022-07-31T18:40:26.862Z,25.69
2022-07-31T18:42:53.324Z,25.76
2022-07-31T18:45:19.722Z,25.63
2022-07-31T18:47:46.455Z,25.61
2022-07-31T18:51:01.944Z,25.47
2022-07-31T18:52:59.228Z,25.46
2022-07-31T18:55:26.082Z,25.27
2022-07-31T18:57:52.482Z,25.37
2022-07-31T19:00:21.375Z,25.03
2022-07-31T19:02:48.346Z,25.15
2022-07-31T19:05:21.853Z,25.16
2022-07-31T19:07:48.884Z,25.13
2022-07-31T19:10:29.167Z,24.98
2022-07-31T19:12:58.239Z,25.05
2022-07-31T19:15:24.732Z,24.83
2022-07-31T19:17:51.182Z,24.94
2022-07-31T19:20:56.304Z,24.92
2022-07-31T19:23:04.079Z,24.65
2022-07-31T19:26:03.828Z,24.60
2022-07-31T19:28:21.203Z,24.60
2022-07-31T19:30:54.036Z,24.63
2022-07-31T19:33:20.597Z,24.53
2022-07-31T19:35:58.508Z,24.50
2022-07-31T19:38:27.362Z,24.33
2022-07-31T19:40:53.935Z,24.03
2022-07-31T19:43:20.592Z,24.16
2022-07-31T19:46:09.884Z,24.18
2022-07-31T19:48:33.874Z,23.92
2022-07-31T19:51:00.265Z,23.84
2022-07-31T19:53:26.636Z,23.56
2022-07-31T19:55:53.058Z,23.32
2022-07-31T19:58:21.261Z,23.18
2022-07-31T20:00:48.664Z,22.77
2022-07-31T20:03:15.111Z,22.57
2022-07-31T20:05:41.704Z,22.50
2022-07-31T20:08:08.094Z,22.49
2022-07-31T20:10:34.523Z,22.09
2022-07-31T20:13:01.585Z,22.20
2022-07-31T20:15:50.545Z,22.10
2022-07-31T20:18:23.361Z,22.04
2022-07-31T20:20:56.917Z,21.86
2022-07-31T20:23:23.761Z,21.84
2022-07-31T20:25:50.518Z,21.66
2022-07-31T20:28:17.420Z,21.75
2022-07-31T20:30:43.823Z,21.46
2022-07-31T20:33:11.281Z,21.23
2022-07-31T20:35:47.956Z,21.32
2022-07-31T20:38:18.250Z,21.20
2022-07-31T20:40:53.750Z,20.98
2022-07-31T20:43:25.750Z,20.85
2022-07-31T20:45:53.651Z,20.75
2022-07-31T20:48:25.944Z,20.66
2022-07-31T20:50:53.971Z,20.64
2022-07-31T20:53:22.116Z,20.71
2022-07-31T20:55:51.901Z,20.78
2022-07-31T20:58:19.340Z,20.75
2022-07-31T21:00:47.393Z,20.62
2022-07-31T21:03:14.813Z,20.60
2022-07-31T21:05:41.337Z,20.48
2022-07-31T21:08:07.802Z,20.35
2022-07-31T21:10:35.837Z,20.34
2022-07-31T21:13:02.966Z,20.42
2022-07-31T21:15:41.988Z,20.27
2022-07-31T21:18:12.124Z,20.37
2022-07-31T21:20:52.375Z,20.29
2022-07-31T21:23:21.176Z,20.17
2022-07-31T21:25:48.912Z,20.12
2022-07-31T21:28:17.084Z,20.19
2022-07-31T21:30:44.891Z,20.09
2022-07-31T21:33:11.464Z,20.07
2022-07-31T21:35:40.738Z,20.13
2022-07-31T21:38:11.836Z,20.03
2022-07-31T21:40:39.545Z,20.01
2022-07-31T21:43:06.462Z,19.94
2022-07-31T21:45:50.533Z,20.01
2022-07-31T21:48:23.543Z,20.09
2022-07-31T21:50:50.374Z,20.04
2022-07-31T21:53:16.926Z,20.07
2022-07-31T21:55:43.335Z,20.28
2022-07-31T21:58:09.840Z,20.30
2022-07-31T22:00:37.003Z,20.40
2022-07-31T22:03:04.137Z,20.40
2022-07-31T22:05:49.979Z,20.55
2022-07-31T22:08:16.591Z,20.40
2022-07-31T22:10:43.762Z,20.55
2022-07-31T22:13:11.626Z,20.69
2022-07-31T22:15:58.829Z,20.61
2022-07-31T22:18:28.543Z,20.65
2022-07-31T22:20:55.125Z,20.68
2022-07-31T22:23:22.760Z,20.61
2022-07-31T22:25:49.511Z,20.62
2022-07-31T22:28:19.669Z,20.73
2022-07-31T22:30:46.493Z,20.59
2022-07-31T22:33:13.356Z,20.63
2022-07-31T22:35:41.054Z,20.50
2022-07-31T22:38:10.253Z,20.27
2022-07-31T22:40:37.857Z,20.55
2022-07-31T22:44:14.093Z,20.55
2022-07-31T22:45:52.902Z,20.68
2022-07-31T22:48:21.766Z,20.39
2022-07-31T22:50:49.546Z,20.67
2022-07-31T22:53:16.600Z,20.61
2022-07-31T22:55:43.258Z,20.77
2022-07-31T22:58:11.494Z,20.67
2022-07-31T23:00:38.874Z,20.67
2022-07-31T23:03:05.377Z,20.62
2022-07-31T23:06:05.310Z,20.58
2022-07-31T23:08:18.601Z,20.53
2022-07-31T23:10:45.113Z,20.56
2022-07-31T23:13:12.320Z,20.53
2022-07-31T23:15:40.427Z,20.41
2022-07-31T23:18:06.805Z,20.27
2022-07-31T23:20:33.194Z,20.15
2022-07-31T23:22:59.605Z,20.19
2022-07-31T23:25:26.003Z,20.38
2022-07-31T23:27:52.434Z,20.25
2022-07-31T23:30:18.833Z,20.30
2022-07-31T23:32:45.250Z,20.17
2022-07-31T23:35:11.642Z,19.96
2022-07-31T23:37:38.529Z,19.87
2022-07-31T23:40:05.558Z,20.15
2022-07-31T23:42:38.090Z,19.95
2022-07-31T23:45:08.030Z,19.98
2022-07-31T23:47:45.993Z,19.96
2022-07-31T23:50:14.513Z,20.01
2022-07-31T23:52:41.770Z,19.86
2022-07-31T23:55:08.692Z,19.76
2022-07-31T23:57:36.115Z,19.66
